createdAt,value
2023-09-07T00:00:23.641Z,35.76
2023-09-07T00:00:53.681Z,35.80
2023-09-07T00:01:23.801Z,35.81
2023-09-07T00:01:53.926Z,35.78
2023-09-07T00:02:35.254Z,35.75
2023-09-07T00:02:53.948Z,35.77
2023-09-07T00:03:24.073Z,35.74
2023-09-07T00:03:54.189Z,35.78
2023-09-07T00:04:24.400Z,35.81
2023-09-07T00:04:54.248Z,35.81
2023-09-07T00:05:24.296Z,35.80
2023-09-07T00:05:54.348Z,35.77
2023-09-07T00:06:24.366Z,35.78
2023-09-07T00:06:54.399Z,35.78
2023-09-07T00:07:24.483Z,35.77
2023-09-07T00:07:54.443Z,35.78
2023-09-07T00:08:24.627Z,35.74
2023-09-07T00:08:54.536Z,35.74
2023-09-07T00:09:24.612Z,35.79
2023-09-07T00:09:54.627Z,35.79
2023-09-07T00:10:24.784Z,35.75
2023-09-07T00:10:54.732Z,35.74
2023-09-07T00:11:24.746Z,35.77
2023-09-07T00:11:54.776Z,35.70
2023-09-07T00:12:24.827Z,35.71
2023-09-07T00:12:54.854Z,35.78
2023-09-07T00:13:24.952Z,35.77
2023-09-07T00:13:54.876Z,35.75
2023-09-07T00:14:24.911Z,35.75
2023-09-07T00:14:54.946Z,35.73
2023-09-07T00:15:25.014Z,35.78
2023-09-07T00:15:55.108Z,35.71
2023-09-07T00:16:25.350Z,35.79
2023-09-07T00:16:55.236Z,35.75
2023-09-07T00:17:25.204Z,35.71
2023-09-07T00:17:55.321Z,35.77
2023-09-07T00:18:25.361Z,35.73
2023-09-07T00:18:55.358Z,35.79
2023-09-07T00:19:25.507Z,35.73
2023-09-07T00:19:55.795Z,35.78
2023-09-07T00:20:25.573Z,35.73
2023-09-07T00:20:55.698Z,35.76
2023-09-07T00:21:25.809Z,35.78
2023-09-07T00:21:55.933Z,35.77
2023-09-07T00:22:26.068Z,35.79
2023-09-07T00:22:55.987Z,35.75
2023-09-07T00:23:25.967Z,35.75
2023-09-07T00:23:55.966Z,35.71
2023-09-07T00:24:25.958Z,35.73
2023-09-07T00:24:56.080Z,35.78
2023-09-07T00:25:26.322Z,35.71
2023-09-07T00:25:56.205Z,35.77
2023-09-07T00:26:26.263Z,35.73
2023-09-07T00:26:56.307Z,35.73
2023-09-07T00:27:26.441Z,35.71
2023-09-07T00:27:56.345Z,35.69
2023-09-07T00:28:26.484Z,35.71
2023-09-07T00:28:56.408Z,35.73
2023-09-07T00:29:26.447Z,35.72
2023-09-07T00:29:56.476Z,35.75
2023-09-07T00:30:26.505Z,35.73
2023-09-07T00:30:56.547Z,35.69
2023-09-07T00:31:26.639Z,35.72
2023-09-07T00:31:56.790Z,35.72
2023-09-07T00:32:26.604Z,35.73
2023-09-07T00:32:56.662Z,35.71
2023-09-07T00:33:26.696Z,35.71
2023-09-07T00:33:56.805Z,35.75
2023-09-07T00:34:26.828Z,35.69
2023-09-07T00:34:56.757Z,35.70
2023-09-07T00:35:26.799Z,35.75
2023-09-07T00:35:56.838Z,35.69
2023-09-07T00:36:26.885Z,35.76
2023-09-07T00:36:56.951Z,35.75
2023-09-07T00:37:27.168Z,35.75
2023-09-07T00:37:57.128Z,35.75
2023-09-07T00:38:27.156Z,35.76
2023-09-07T00:38:57.192Z,35.72
2023-09-07T00:39:27.226Z,35.76
2023-09-07T00:39:57.311Z,35.70
2023-09-07T00:40:27.471Z,35.72
2023-09-07T00:40:57.389Z,35.73
2023-09-07T00:41:27.419Z,35.72
2023-09-07T00:41:57.478Z,35.73
2023-09-07T00:42:27.528Z,35.73
2023-09-07T00:42:57.576Z,35.73
2023-09-07T00:43:27.756Z,35.69
2023-09-07T00:43:57.699Z,35.69
2023-09-07T00:44:27.722Z,35.73
2023-09-07T00:44:57.747Z,35.73
2023-09-07T00:45:27.786Z,35.69
2023-09-07T00:45:57.886Z,35.70
2023-09-07T00:46:27.938Z,35.72
2023-09-07T00:46:58.031Z,35.72
2023-09-07T00:47:28.063Z,35.69
2023-09-07T00:47:58.110Z,35.69
2023-09-07T00:48:28.139Z,35.69
2023-09-07T00:48:58.155Z,35.69
2023-09-07T00:49:28.315Z,35.75
2023-09-07T00:49:58.361Z,35.72
2023-09-07T00:50:28.469Z,35.74
2023-09-07T00:50:58.512Z,35.73
2023-09-07T00:51:28.552Z,35.70
2023-09-07T00:51:58.593Z,35.73
2023-09-07T00:52:28.661Z,35.66
2023-09-07T00:52:58.680Z,35.74
2023-09-07T00:53:28.721Z,35.72
2023-09-07T00:53:58.760Z,35.76
2023-09-07T00:54:28.795Z,35.70
2023-09-07T00:54:58.827Z,35.72
2023-09-07T00:55:28.998Z,35.67
2023-09-07T00:55:59.049Z,35.73
2023-09-07T00:56:29.011Z,35.74
2023-09-07T00:56:59.044Z,35.72
2023-09-07T00:57:29.096Z,35.70
2023-09-07T00:57:59.101Z,35.73
2023-09-07T00:58:29.621Z,35.76
2023-09-07T00:58:59.249Z,35.67
2023-09-07T00:59:29.281Z,35.68
2023-09-07T00:59:59.335Z,35.70
2023-09-07T01:00:29.381Z,35.71
2023-09-07T01:00:59.439Z,35.68
2023-09-07T01:01:29.534Z,35.69
2023-09-07T01:01:59.667Z,35.70
2023-09-07T01:02:29.736Z,35.70
2023-09-07T01:02:59.858Z,35.71
2023-09-07T01:03:29.893Z,35.68
2023-09-07T01:04:00.017Z,35.70
2023-09-07T01:04:29.983Z,35.73
2023-09-07T01:05:00.067Z,35.74
2023-09-07T01:05:30.116Z,35.70
2023-09-07T01:06:00.170Z,35.68
2023-09-07T01:06:30.245Z,35.78
2023-09-07T01:07:00.307Z,35.71
2023-09-07T01:07:30.322Z,35.70
2023-09-07T01:08:00.359Z,35.74
2023-09-07T01:08:30.670Z,35.72
2023-09-07T01:09:00.515Z,35.75
2023-09-07T01:09:30.894Z,35.75
2023-09-07T01:10:00.546Z,35.78
2023-09-07T01:10:30.577Z,35.73
2023-09-07T01:11:00.613Z,35.70
2023-09-07T01:11:30.655Z,35.68
2023-09-07T01:12:00.691Z,35.71
2023-09-07T01:12:30.740Z,35.74
2023-09-07T01:13:00.753Z,35.74
2023-09-07T01:13:30.814Z,35.72
2023-09-07T01:14:00.894Z,35.74
2023-09-07T01:14:30.843Z,35.71
2023-09-07T01:15:00.929Z,35.72
2023-09-07T01:15:30.979Z,35.68
2023-09-07T01:16:01.062Z,35.72
2023-09-07T01:16:31.309Z,35.70
2023-09-07T01:17:01.235Z,35.72
2023-09-07T01:17:31.405Z,35.70
2023-09-07T01:18:14.117Z,35.62
2023-09-07T01:18:31.402Z,35.68
2023-09-07T01:19:01.468Z,35.67
2023-09-07T01:19:31.463Z,35.71
2023-09-07T01:20:01.572Z,35.71
2023-09-07T01:20:31.645Z,35.75
2023-09-07T01:21:01.636Z,35.73
2023-09-07T01:21:31.629Z,35.72
2023-09-07T01:22:01.643Z,35.77
2023-09-07T01:22:31.825Z,35.72
2023-09-07T01:23:01.907Z,35.77
2023-09-07T01:23:31.994Z,35.78
2023-09-07T01:24:01.995Z,35.75
2023-09-07T01:24:31.984Z,35.75
2023-09-07T01:25:02.010Z,35.74
2023-09-07T01:25:32.067Z,35.67
2023-09-07T01:26:02.142Z,35.68
2023-09-07T01:26:32.214Z,35.65
2023-09-07T01:27:02.270Z,35.71
2023-09-07T01:27:32.338Z,35.72
2023-09-07T01:28:02.365Z,35.71
2023-09-07T01:28:32.712Z,35.69
2023-09-07T01:29:02.471Z,35.68
2023-09-07T01:29:32.482Z,35.71
2023-09-07T01:30:02.550Z,35.72
2023-09-07T01:30:32.620Z,35.66
2023-09-07T01:31:02.704Z,35.71
2023-09-07T01:31:32.834Z,35.71
2023-09-07T01:32:02.830Z,35.75
2023-09-07T01:32:32.865Z,35.71
2023-09-07T01:33:02.905Z,35.67
2023-09-07T01:33:32.949Z,35.69
2023-09-07T01:34:02.982Z,35.66
2023-09-07T01:34:33.065Z,35.73
2023-09-07T01:35:03.221Z,35.73
2023-09-07T01:35:33.060Z,35.68
2023-09-07T01:36:03.111Z,35.75
2023-09-07T01:36:33.148Z,35.69
2023-09-07T01:37:03.164Z,35.72
2023-09-07T01:37:33.281Z,35.72
2023-09-07T01:38:03.311Z,35.73
2023-09-07T01:38:33.585Z,35.75
2023-09-07T01:39:03.342Z,35.72
2023-09-07T01:39:33.369Z,35.72
2023-09-07T01:40:03.411Z,35.73
2023-09-07T01:40:33.450Z,35.71
2023-09-07T01:41:03.495Z,35.73
2023-09-07T01:41:33.586Z,35.75
2023-09-07T01:42:03.629Z,35.72
2023-09-07T01:42:33.657Z,35.73
2023-09-07T01:43:03.696Z,35.73
2023-09-07T01:43:33.797Z,35.73
2023-09-07T01:44:03.846Z,35.73
2023-09-07T01:44:33.893Z,35.72
2023-09-07T01:45:03.956Z,35.69
2023-09-07T01:45:33.997Z,35.75
2023-09-07T01:46:04.020Z,35.74
2023-09-07T01:46:34.126Z,35.71
2023-09-07T01:47:04.193Z,35.68
2023-09-07T01:47:34.248Z,35.66
2023-09-07T01:48:04.307Z,35.66
2023-09-07T01:48:34.589Z,35.69
2023-09-07T01:49:04.309Z,35.63
2023-09-07T01:49:34.357Z,35.66
2023-09-07T01:50:04.470Z,35.69
2023-09-07T01:50:34.481Z,35.76
2023-09-07T01:51:05.966Z,35.71
2023-09-07T01:51:34.615Z,35.65
2023-09-07T01:52:04.646Z,35.74
2023-09-07T01:52:34.679Z,35.71
2023-09-07T01:53:04.733Z,35.71
2023-09-07T01:53:34.761Z,35.75
2023-09-07T01:54:04.799Z,35.79
2023-09-07T01:54:34.830Z,35.74
2023-09-07T01:55:04.863Z,35.71
2023-09-07T01:55:34.989Z,35.79
2023-09-07T01:56:05.091Z,35.74
2023-09-07T01:56:35.273Z,35.74
2023-09-07T01:57:05.171Z,35.76
2023-09-07T01:57:35.203Z,35.70
2023-09-07T01:58:05.246Z,35.73
2023-09-07T01:58:35.289Z,35.76
2023-09-07T01:59:05.392Z,35.71
2023-09-07T01:59:35.332Z,35.74
2023-09-07T02:00:05.380Z,35.74
2023-09-07T02:00:35.563Z,35.73
2023-09-07T02:01:05.547Z,35.75
2023-09-07T02:01:35.627Z,35.66
2023-09-07T02:02:05.709Z,35.73
2023-09-07T02:02:35.658Z,35.69
2023-09-07T02:03:05.746Z,35.78
2023-09-07T02:03:35.831Z,35.70
2023-09-07T02:04:05.800Z,35.76
2023-09-07T02:04:35.873Z,35.71
2023-09-07T02:05:05.967Z,35.79
2023-09-07T02:05:36.158Z,35.77
2023-09-07T02:06:06.091Z,35.71
2023-09-07T02:06:36.128Z,35.71
2023-09-07T02:07:06.158Z,35.73
2023-09-07T02:07:36.203Z,35.76
2023-09-07T02:08:06.369Z,35.70
2023-09-07T02:08:36.344Z,35.77
2023-09-07T02:09:06.386Z,35.70
2023-09-07T02:09:36.468Z,35.73
2023-09-07T02:10:06.521Z,35.70
2023-09-07T02:10:36.627Z,35.73
2023-09-07T02:11:06.599Z,35.74
2023-09-07T02:11:36.639Z,35.68
2023-09-07T02:12:06.664Z,35.71
2023-09-07T02:12:36.703Z,35.71
2023-09-07T02:13:06.729Z,35.71
2023-09-07T02:13:36.800Z,35.73
2023-09-07T02:14:06.940Z,35.66
2023-09-07T02:14:37.405Z,35.71
2023-09-07T02:15:07.100Z,35.71
2023-09-07T02:15:37.132Z,35.64
2023-09-07T02:16:07.145Z,35.67
2023-09-07T02:16:37.415Z,35.70
2023-09-07T02:17:07.537Z,35.70
2023-09-07T02:17:37.446Z,35.75
2023-09-07T02:18:07.498Z,35.74
2023-09-07T02:18:37.537Z,35.67
2023-09-07T02:19:07.563Z,35.68
2023-09-07T02:19:37.574Z,35.67
2023-09-07T02:20:07.635Z,35.68
2023-09-07T02:20:37.688Z,35.68
2023-09-07T02:21:07.684Z,35.67
2023-09-07T02:21:38.425Z,35.66
2023-09-07T02:22:07.825Z,35.71
2023-09-07T02:22:37.852Z,35.70
2023-09-07T02:23:07.861Z,35.77
2023-09-07T02:23:37.997Z,35.74
2023-09-07T02:24:08.007Z,35.75
2023-09-07T02:24:38.009Z,35.72
2023-09-07T02:25:07.993Z,35.77
2023-09-07T02:25:38.111Z,35.73
2023-09-07T02:26:08.212Z,35.77
2023-09-07T02:26:38.167Z,35.80
2023-09-07T02:27:08.247Z,35.77
2023-09-07T02:27:38.274Z,35.72
2023-09-07T02:28:08.313Z,35.74
2023-09-07T02:28:38.354Z,35.68
2023-09-07T02:29:08.382Z,35.73
2023-09-07T02:29:38.450Z,35.80
2023-09-07T02:30:08.676Z,35.82
2023-09-07T02:30:38.612Z,35.81
2023-09-07T02:31:08.697Z,35.76
2023-09-07T02:31:38.691Z,35.77
2023-09-07T02:32:08.745Z,35.73
2023-09-07T02:32:38.841Z,35.78
2023-09-07T02:33:08.942Z,35.77
2023-09-07T02:33:39.089Z,35.78
2023-09-07T02:34:09.095Z,35.76
2023-09-07T02:34:39.017Z,35.73
2023-09-07T02:35:09.045Z,35.75
2023-09-07T02:35:39.137Z,35.72
2023-09-07T02:36:09.197Z,35.71
2023-09-07T02:36:39.268Z,35.73
2023-09-07T02:37:09.266Z,35.78
2023-09-07T02:37:39.309Z,35.83
2023-09-07T02:38:09.339Z,35.76
2023-09-07T02:38:39.480Z,35.75
2023-09-07T02:39:09.457Z,35.78
2023-09-07T02:39:39.481Z,35.81
2023-09-07T02:40:09.521Z,35.80
2023-09-07T02:40:39.578Z,35.82
2023-09-07T02:41:09.612Z,35.80
2023-09-07T02:41:39.721Z,35.76
2023-09-07T02:42:09.740Z,35.79
2023-09-07T02:42:39.784Z,35.76
2023-09-07T02:43:09.849Z,35.80
2023-09-07T02:43:39.899Z,35.72
2023-09-07T02:44:09.927Z,35.76
2023-09-07T02:44:39.971Z,35.69
2023-09-07T02:45:10.051Z,35.72
2023-09-07T02:45:40.178Z,35.69
2023-09-07T02:46:10.232Z,35.73
2023-09-07T02:46:40.292Z,35.71
2023-09-07T02:47:12.995Z,35.76
2023-09-07T02:47:40.500Z,35.68
2023-09-07T02:48:10.519Z,35.66
2023-09-07T02:48:40.495Z,35.68
2023-09-07T02:49:10.529Z,35.69
2023-09-07T02:49:40.572Z,35.70
2023-09-07T02:50:10.588Z,35.66
2023-09-07T02:50:40.619Z,35.59
2023-09-07T02:51:10.672Z,35.65
2023-09-07T02:51:40.709Z,35.65
2023-09-07T02:52:10.747Z,35.69
2023-09-07T02:52:40.786Z,35.63
2023-09-07T02:53:10.816Z,35.62
2023-09-07T02:53:40.841Z,35.68
2023-09-07T02:54:10.876Z,35.72
2023-09-07T02:54:40.921Z,35.71
2023-09-07T02:55:10.964Z,35.69
2023-09-07T02:55:41.050Z,35.66
2023-09-07T02:56:11.075Z,35.69
2023-09-07T02:56:41.130Z,35.63
2023-09-07T02:57:11.194Z,35.68
2023-09-07T02:57:41.304Z,35.58
2023-09-07T02:58:11.377Z,35.65
2023-09-07T02:58:41.442Z,35.63
2023-09-07T02:59:11.482Z,35.65
2023-09-07T02:59:41.500Z,35.70
2023-09-07T03:00:11.530Z,35.60
2023-09-07T03:00:41.560Z,35.73
2023-09-07T03:01:11.651Z,35.70
2023-09-07T03:01:41.693Z,35.68
2023-09-07T03:02:11.700Z,35.66
2023-09-07T03:02:41.848Z,35.68
2023-09-07T03:03:11.869Z,35.70
2023-09-07T03:03:42.001Z,35.72
2023-09-07T03:04:11.938Z,35.65
2023-09-07T03:04:42.005Z,35.60
2023-09-07T03:05:12.053Z,35.68
2023-09-07T03:05:42.172Z,35.69
2023-09-07T03:06:12.208Z,35.69
2023-09-07T03:06:42.412Z,35.67
2023-09-07T03:07:12.362Z,35.66
2023-09-07T03:07:42.342Z,35.70
2023-09-07T03:08:12.370Z,35.74
2023-09-07T03:08:42.420Z,35.64
2023-09-07T03:09:12.434Z,35.71
2023-09-07T03:09:42.460Z,35.70
2023-09-07T03:10:12.554Z,35.68
2023-09-07T03:10:42.598Z,35.64
2023-09-07T03:11:12.646Z,35.63
2023-09-07T03:11:42.683Z,35.68
2023-09-07T03:12:12.727Z,35.70
2023-09-07T03:12:42.754Z,35.69
2023-09-07T03:13:12.784Z,35.70
2023-09-07T03:13:42.875Z,35.70
2023-09-07T03:14:12.900Z,35.73
2023-09-07T03:14:42.920Z,35.70
2023-09-07T03:15:12.954Z,35.64
2023-09-07T03:15:42.988Z,35.64
2023-09-07T03:16:13.058Z,35.67
2023-09-07T03:16:43.205Z,35.70
2023-09-07T03:17:13.312Z,35.71
2023-09-07T03:17:43.357Z,35.63
2023-09-07T03:18:13.378Z,35.68
2023-09-07T03:18:43.372Z,35.62
2023-09-07T03:19:13.410Z,35.69
2023-09-07T03:19:43.396Z,35.66
2023-09-07T03:20:13.395Z,35.64
2023-09-07T03:20:43.413Z,35.67
2023-09-07T03:21:13.408Z,35.70
2023-09-07T03:21:43.520Z,35.70
2023-09-07T03:22:13.548Z,35.69
2023-09-07T03:22:43.593Z,35.70
2023-09-07T03:23:13.615Z,35.74
2023-09-07T03:23:43.596Z,35.70
2023-09-07T03:24:13.714Z,35.74
2023-09-07T03:24:43.905Z,35.66
2023-09-07T03:25:14.004Z,35.66
2023-09-07T03:25:43.998Z,35.71
2023-09-07T03:26:14.006Z,35.73
2023-09-07T03:26:44.049Z,35.70
2023-09-07T03:27:14.088Z,35.68
2023-09-07T03:27:44.156Z,35.70
2023-09-07T03:28:14.202Z,35.73
2023-09-07T03:28:44.232Z,35.70
2023-09-07T03:29:14.261Z,35.67
2023-09-07T03:29:44.308Z,35.64
2023-09-07T03:30:14.341Z,35.63
2023-09-07T03:30:44.372Z,35.63
2023-09-07T03:31:14.444Z,35.61
2023-09-07T03:31:44.617Z,35.54
2023-09-07T03:32:14.700Z,35.62
2023-09-07T03:32:44.731Z,35.55
2023-09-07T03:33:14.651Z,35.61
2023-09-07T03:33:44.580Z,35.60
2023-09-07T03:34:14.665Z,35.61
2023-09-07T03:34:44.733Z,35.64
2023-09-07T03:35:14.745Z,35.62
2023-09-07T03:35:44.910Z,35.60
2023-09-07T03:36:14.937Z,35.53
2023-09-07T03:36:45.024Z,35.56
2023-09-07T03:37:15.074Z,35.64
2023-09-07T03:37:45.154Z,35.66
2023-09-07T03:38:15.244Z,35.68
2023-09-07T03:38:45.458Z,35.75
2023-09-07T03:39:15.450Z,35.75
2023-09-07T03:39:45.356Z,35.73
2023-09-07T03:40:15.395Z,35.68
2023-09-07T03:40:45.443Z,35.71
2023-09-07T03:41:15.469Z,35.71
2023-09-07T03:41:45.509Z,35.31
2023-09-07T03:42:15.529Z,35.35
2023-09-07T03:42:45.562Z,35.18
2023-09-07T03:43:15.671Z,35.21
2023-09-07T03:43:45.825Z,35.31
2023-09-07T03:44:15.725Z,35.37
2023-09-07T03:44:45.757Z,35.41
2023-09-07T03:45:15.785Z,35.38
2023-09-07T03:45:45.896Z,35.17
2023-09-07T03:46:15.912Z,35.21
2023-09-07T03:46:45.920Z,35.30
2023-09-07T03:47:15.912Z,34.99
2023-09-07T03:47:46.069Z,34.85
2023-09-07T03:48:16.021Z,34.77
2023-09-07T03:48:46.051Z,34.69
2023-09-07T03:49:16.179Z,34.68
2023-09-07T03:49:46.225Z,34.54
2023-09-07T03:50:16.261Z,34.47
2023-09-07T03:50:46.318Z,34.56
2023-09-07T03:51:16.344Z,34.21
2023-09-07T03:51:46.378Z,34.28
2023-09-07T03:52:16.473Z,34.07
2023-09-07T03:52:46.583Z,34.05
2023-09-07T03:53:16.727Z,33.77
2023-09-07T03:53:46.680Z,33.65
2023-09-07T03:54:16.709Z,33.69
2023-09-07T03:54:46.760Z,33.70
2023-09-07T03:55:16.801Z,33.65
2023-09-07T03:55:46.897Z,33.67
2023-09-07T03:56:16.917Z,33.63
2023-09-07T03:56:47.006Z,33.66
2023-09-07T03:57:17.088Z,33.66
2023-09-07T03:57:47.257Z,33.77
2023-09-07T03:58:17.206Z,33.63
2023-09-07T03:58:47.248Z,33.25
2023-09-07T03:59:17.311Z,33.54
2023-09-07T03:59:47.366Z,33.52
2023-09-07T04:00:17.425Z,33.35
2023-09-07T04:00:47.461Z,33.39
2023-09-07T04:01:17.527Z,33.30
2023-09-07T04:01:47.694Z,33.10
2023-09-07T04:02:17.719Z,33.10
2023-09-07T04:02:47.915Z,33.05
2023-09-07T04:03:17.926Z,33.18
2023-09-07T04:03:47.966Z,33.10
2023-09-07T04:04:18.061Z,33.25
2023-09-07T04:04:47.975Z,33.07
2023-09-07T04:05:18.000Z,33.06
2023-09-07T04:05:48.110Z,33.01
2023-09-07T04:06:18.020Z,32.82
2023-09-07T04:06:48.082Z,32.87
2023-09-07T04:07:18.117Z,32.74
2023-09-07T04:07:48.152Z,32.80
2023-09-07T04:08:18.199Z,32.70
2023-09-07T04:08:48.283Z,32.65
2023-09-07T04:09:18.331Z,32.82
2023-09-07T04:09:48.350Z,32.94
2023-09-07T04:10:18.459Z,33.03
2023-09-07T04:10:48.394Z,33.08
2023-09-07T04:11:18.443Z,32.91
2023-09-07T04:11:48.541Z,32.77
2023-09-07T04:12:18.690Z,32.83
2023-09-07T04:12:48.658Z,32.77
2023-09-07T04:13:18.674Z,32.73
2023-09-07T04:13:48.733Z,32.66
2023-09-07T04:14:18.761Z,32.68
2023-09-07T04:14:48.920Z,32.57
2023-09-07T04:15:18.991Z,32.68
2023-09-07T04:15:49.073Z,32.60
2023-09-07T04:16:19.088Z,32.37
2023-09-07T04:16:49.108Z,32.09
2023-09-07T04:17:19.263Z,32.32
2023-09-07T04:17:49.268Z,32.32
2023-09-07T04:18:19.291Z,32.37
2023-09-07T04:18:49.320Z,32.35
2023-09-07T04:19:19.304Z,32.34
2023-09-07T04:19:49.416Z,32.41
2023-09-07T04:20:19.541Z,32.35
2023-09-07T04:20:49.591Z,32.15
2023-09-07T04:21:19.607Z,32.26
2023-09-07T04:21:49.584Z,32.07
2023-09-07T04:22:19.582Z,32.23
2023-09-07T04:22:49.576Z,32.19
2023-09-07T04:23:19.691Z,32.09
2023-09-07T04:23:49.687Z,32.18
2023-09-07T04:24:19.869Z,32.10
2023-09-07T04:24:50.011Z,32.10
2023-09-07T04:25:19.899Z,32.38
2023-09-07T04:25:50.086Z,32.29
2023-09-07T04:26:19.977Z,32.23
2023-09-07T04:26:50.015Z,32.19
2023-09-07T04:27:20.114Z,32.18
2023-09-07T04:27:50.118Z,32.15
2023-09-07T04:28:20.210Z,32.12
2023-09-07T04:28:50.233Z,32.04
2023-09-07T04:29:20.261Z,32.12
2023-09-07T04:29:50.415Z,32.27
2023-09-07T04:30:20.403Z,32.12
2023-09-07T04:30:50.433Z,32.15
2023-09-07T04:31:20.528Z,32.17
2023-09-07T04:31:50.633Z,32.14
2023-09-07T04:32:20.651Z,32.27
2023-09-07T04:32:50.729Z,32.14
2023-09-07T04:33:20.763Z,32.20
2023-09-07T04:33:50.820Z,32.29
2023-09-07T04:34:20.878Z,32.26
2023-09-07T04:34:50.846Z,32.09
2023-09-07T04:35:20.921Z,32.14
2023-09-07T04:35:50.929Z,32.09
2023-09-07T04:36:20.960Z,32.12
2023-09-07T04:36:50.997Z,32.16
2023-09-07T04:37:21.020Z,32.04
2023-09-07T04:37:51.104Z,32.13
2023-09-07T04:38:21.142Z,32.16
2023-09-07T04:38:51.161Z,32.15
2023-09-07T04:39:21.198Z,32.30
2023-09-07T04:39:51.255Z,32.29
2023-09-07T04:40:21.294Z,32.37
2023-09-07T04:40:51.335Z,32.27
2023-09-07T04:41:21.386Z,32.21
2023-09-07T04:41:51.401Z,32.13
2023-09-07T04:42:21.431Z,32.15
2023-09-07T04:42:51.472Z,32.20
2023-09-07T04:43:21.505Z,32.21
2023-09-07T04:43:51.678Z,32.07
2023-09-07T04:44:21.596Z,32.26
2023-09-07T04:44:51.628Z,32.26
2023-09-07T04:45:21.679Z,32.44
2023-09-07T04:45:51.725Z,32.01
2023-09-07T04:46:22.606Z,31.97
2023-09-07T04:46:51.950Z,31.97
2023-09-07T04:47:21.924Z,32.30
2023-09-07T04:47:51.995Z,32.34
2023-09-07T04:48:22.051Z,32.39
2023-09-07T04:48:52.329Z,32.40
2023-09-07T04:49:22.142Z,32.88
2023-09-07T04:49:52.260Z,32.51
2023-09-07T04:50:22.258Z,32.80
2023-09-07T04:50:52.295Z,32.41
2023-09-07T04:51:22.326Z,32.54
2023-09-07T04:51:52.358Z,32.52
2023-09-07T04:52:22.397Z,32.37
2023-09-07T04:52:52.452Z,32.50
2023-09-07T04:53:22.479Z,32.47
2023-09-07T04:53:55.159Z,32.52
2023-09-07T04:54:22.636Z,32.46
2023-09-07T04:54:52.659Z,32.27
2023-09-07T04:55:22.691Z,32.22
2023-09-07T04:55:52.737Z,32.26
2023-09-07T04:56:22.782Z,32.02
2023-09-07T04:56:52.874Z,32.14
2023-09-07T04:57:22.924Z,32.14
2023-09-07T04:57:52.968Z,32.19
2023-09-07T04:58:23.037Z,32.08
2023-09-07T04:58:53.040Z,32.08
2023-09-07T04:59:23.064Z,32.11
2023-09-07T04:59:53.100Z,31.97
2023-09-07T05:00:23.158Z,32.00
2023-09-07T05:00:53.240Z,31.99
2023-09-07T05:01:23.346Z,32.11
2023-09-07T05:01:53.397Z,32.00
2023-09-07T05:02:23.452Z,32.13
2023-09-07T05:02:53.912Z,31.96
2023-09-07T05:03:23.564Z,31.96
2023-09-07T05:03:53.675Z,31.94
2023-09-07T05:04:23.797Z,31.99
2023-09-07T05:04:53.682Z,31.99
2023-09-07T05:05:23.690Z,32.21
2023-09-07T05:05:53.725Z,32.16
2023-09-07T05:06:23.761Z,32.38
2023-09-07T05:06:53.816Z,32.16
2023-09-07T05:07:23.877Z,32.22
2023-09-07T05:07:54.289Z,32.30
2023-09-07T05:08:23.959Z,32.18
2023-09-07T05:08:53.985Z,32.31
2023-09-07T05:09:24.018Z,32.25
2023-09-07T05:09:54.133Z,32.25
2023-09-07T05:10:24.100Z,32.09
2023-09-07T05:10:54.295Z,32.14
2023-09-07T05:11:24.214Z,32.21
2023-09-07T05:11:54.250Z,32.20
2023-09-07T05:12:24.309Z,31.99
2023-09-07T05:12:54.363Z,32.19
2023-09-07T05:13:24.403Z,32.19
2023-09-07T05:13:54.452Z,32.14
2023-09-07T05:14:24.474Z,32.09
2023-09-07T05:14:54.527Z,32.16
2023-09-07T05:15:24.563Z,32.25
2023-09-07T05:15:54.621Z,32.22
2023-09-07T05:16:24.721Z,32.37
2023-09-07T05:16:54.662Z,32.23
2023-09-07T05:17:24.637Z,32.19
2023-09-07T05:17:54.686Z,32.11
2023-09-07T05:18:24.719Z,32.19
2023-09-07T05:18:54.828Z,32.12
2023-09-07T05:19:24.822Z,32.14
2023-09-07T05:19:54.949Z,32.22
2023-09-07T05:20:24.978Z,32.23
2023-09-07T05:20:54.998Z,32.26
2023-09-07T05:21:25.027Z,32.19
2023-09-07T05:21:55.041Z,32.23
2023-09-07T05:22:25.030Z,32.26
2023-09-07T05:22:55.028Z,32.24
2023-09-07T05:23:25.152Z,32.41
2023-09-07T05:23:55.161Z,32.41
2023-09-07T05:24:25.275Z,32.59
2023-09-07T05:24:55.450Z,32.77
2023-09-07T05:25:25.504Z,32.63
2023-09-07T05:25:55.542Z,32.60
2023-09-07T05:26:25.746Z,32.45
2023-09-07T05:26:55.670Z,32.36
2023-09-07T05:27:25.742Z,32.48
2023-09-07T05:27:55.802Z,32.39
2023-09-07T05:28:25.845Z,33.02
2023-09-07T05:28:55.873Z,32.91
2023-09-07T05:29:25.907Z,32.59
2023-09-07T05:29:55.940Z,32.74
2023-09-07T05:30:26.065Z,32.93
2023-09-07T05:30:56.235Z,32.62
2023-09-07T05:31:26.183Z,32.93
2023-09-07T05:31:56.157Z,33.49
2023-09-07T05:32:26.244Z,35.79
2023-09-07T05:32:56.298Z,33.87
2023-09-07T05:33:26.401Z,34.27
2023-09-07T05:33:56.498Z,33.49
2023-09-07T05:34:26.523Z,33.41
2023-09-07T05:34:56.547Z,33.15
2023-09-07T05:35:26.646Z,32.86
2023-09-07T05:35:56.651Z,32.89
2023-09-07T05:36:26.679Z,32.75
2023-09-07T05:36:56.726Z,32.69
2023-09-07T05:37:26.769Z,32.70
2023-09-07T05:37:56.786Z,32.47
2023-09-07T05:38:26.804Z,32.59
2023-09-07T05:38:56.839Z,32.64
2023-09-07T05:39:56.975Z,32.79
2023-09-07T05:40:26.954Z,32.74
2023-09-07T05:40:57.000Z,32.71
2023-09-07T05:41:27.037Z,32.71
2023-09-07T05:41:57.072Z,32.60
2023-09-07T05:42:27.145Z,32.64
2023-09-07T05:42:57.196Z,32.46
2023-09-07T05:43:27.316Z,32.50
2023-09-07T05:43:57.284Z,32.51
2023-09-07T05:44:27.331Z,32.23
2023-09-07T05:44:57.368Z,32.28
2023-09-07T05:45:27.401Z,32.31
2023-09-07T05:45:57.513Z,32.29
2023-09-07T05:46:27.596Z,32.26
2023-09-07T05:46:57.651Z,32.21
2023-09-07T05:47:27.832Z,32.23
2023-09-07T05:47:57.806Z,32.12
2023-09-07T05:48:27.766Z,32.23
2023-09-07T05:48:57.837Z,32.37
2023-09-07T05:49:27.957Z,32.29
2023-09-07T05:49:57.918Z,32.18
2023-09-07T05:50:27.945Z,32.12
2023-09-07T05:50:58.000Z,32.21
2023-09-07T05:51:28.010Z,32.21
2023-09-07T05:51:58.135Z,32.30
2023-09-07T05:52:28.092Z,32.39
2023-09-07T05:52:58.152Z,32.44
2023-09-07T05:53:28.179Z,32.58
2023-09-07T05:53:58.205Z,32.57
2023-09-07T05:54:28.264Z,32.74
2023-09-07T05:54:58.394Z,32.78
2023-09-07T05:55:28.348Z,32.53
2023-09-07T05:55:58.406Z,32.37
2023-09-07T05:56:28.426Z,32.38
2023-09-07T05:56:58.455Z,32.41
2023-09-07T05:57:28.490Z,32.49
2023-09-07T05:57:58.546Z,32.57
2023-09-07T05:58:28.666Z,32.69
2023-09-07T05:58:58.605Z,32.47
2023-09-07T05:59:28.692Z,32.49
2023-09-07T05:59:58.714Z,32.53
2023-09-07T06:00:28.874Z,32.39
2023-09-07T06:00:58.838Z,32.64
2023-09-07T06:01:28.746Z,32.84
2023-09-07T06:01:58.779Z,32.64
2023-09-07T06:02:28.826Z,32.63
2023-09-07T06:02:59.032Z,32.56
2023-09-07T06:03:29.170Z,32.69
2023-09-07T06:03:59.161Z,32.58
2023-09-07T06:04:29.164Z,32.70
2023-09-07T06:04:59.144Z,32.53
2023-09-07T06:05:29.171Z,32.47
2023-09-07T06:05:59.196Z,32.53
2023-09-07T06:06:29.252Z,32.59
2023-09-07T06:06:59.271Z,32.41
2023-09-07T06:07:29.320Z,32.62
2023-09-07T06:07:59.353Z,32.67
2023-09-07T06:08:29.610Z,32.66
2023-09-07T06:08:59.504Z,32.84
2023-09-07T06:09:29.536Z,32.80
2023-09-07T06:09:59.560Z,32.75
2023-09-07T06:10:29.596Z,32.72
2023-09-07T06:10:59.632Z,32.67
2023-09-07T06:11:29.672Z,32.58
2023-09-07T06:11:59.751Z,32.61
2023-09-07T06:12:29.772Z,32.68
2023-09-07T06:13:01.477Z,32.68
2023-09-07T06:13:29.816Z,32.75
2023-09-07T06:13:59.848Z,32.74
2023-09-07T06:14:29.872Z,32.60
2023-09-07T06:14:59.920Z,32.85
2023-09-07T06:15:29.937Z,32.95
2023-09-07T06:15:59.989Z,32.86
2023-09-07T06:16:30.162Z,32.94
2023-09-07T06:17:00.228Z,33.12
2023-09-07T06:17:30.264Z,33.27
2023-09-07T06:18:00.420Z,33.28
2023-09-07T06:18:30.882Z,33.36
2023-09-07T06:19:00.438Z,33.39
2023-09-07T06:19:30.433Z,32.81
2023-09-07T06:20:00.650Z,32.76
2023-09-07T06:20:30.681Z,32.78
2023-09-07T06:21:00.721Z,32.70
2023-09-07T06:21:30.931Z,32.61
2023-09-07T06:22:01.030Z,32.73
2023-09-07T06:22:31.040Z,32.81
2023-09-07T06:23:01.030Z,32.81
2023-09-07T06:23:31.142Z,32.58
2023-09-07T06:24:01.253Z,32.58
2023-09-07T06:24:31.369Z,32.50
2023-09-07T06:25:01.568Z,32.46
2023-09-07T06:25:31.612Z,32.44
2023-09-07T06:26:01.597Z,32.41
2023-09-07T06:26:31.677Z,32.44
2023-09-07T06:27:01.736Z,32.48
2023-09-07T06:27:31.804Z,32.53